sensor_id;sensor_type;location;lat;lon;timestamp;P1;durP1;ratioP1;P2;durP2;ratioP2
11962;SDS011;62678;52.130;5.584;2022-11-11T00:00:58;28.40;;;15.60;;
11962;SDS011;62678;52.130;5.584;2022-11-11T00:03:25;26.98;;;13.00;;
11962;SDS011;62678;52.130;5.584;2022-11-11T00:05:52;23.83;;;14.18;;
11962;SDS011;62678;52.130;5.584;2022-11-11T00:08:19;28.30;;;13.90;;
11962;SDS011;62678;52.130;5.584;2022-11-11T00:10:46;21.02;;;13.55;;
11962;SDS011;62678;52.130;5.584;2022-11-11T00:13:13;24.60;;;14.63;;
11962;SDS011;62678;52.130;5.584;2022-11-11T00:15:41;23.70;;;14.50;;
11962;SDS011;62678;52.130;5.584;2022-11-11T00:18:08;23.60;;;13.18;;
11962;SDS011;62678;52.130;5.584;2022-11-11T00:20:56;25.10;;;14.85;;
11962;SDS011;62678;52.130;5.584;2022-11-11T00:23:41;28.33;;;15.45;;
11962;SDS011;62678;52.130;5.584;2022-11-11T00:26:26;24.13;;;15.77;;
11962;SDS011;62678;52.130;5.584;2022-11-11T00:28:53;24.10;;;15.65;;
11962;SDS011;62678;52.130;5.584;2022-11-11T00:31:21;28.40;;;15.68;;
11962;SDS011;62678;52.130;5.584;2022-11-11T00:33:48;27.17;;;17.48;;
11962;SDS011;62678;52.130;5.584;2022-11-11T00:36:18;29.77;;;18.30;;
11962;SDS011;62678;52.130;5.584;2022-11-11T00:38:44;30.25;;;18.02;;
11962;SDS011;62678;52.130;5.584;2022-11-11T00:41:12;26.90;;;18.00;;
11962;SDS011;62678;52.130;5.584;2022-11-11T00:43:40;28.73;;;18.25;;
11962;SDS011;62678;52.130;5.584;2022-11-11T00:46:08;31.17;;;18.60;;
11962;SDS011;62678;52.130;5.584;2022-11-11T00:48:53;29.83;;;18.92;;
11962;SDS011;62678;52.130;5.584;2022-11-11T00:51:38;30.75;;;19.52;;
11962;SDS011;62678;52.130;5.584;2022-11-11T00:54:05;32.42;;;19.88;;
11962;SDS011;62678;52.130;5.584;2022-11-11T00:56:32;32.15;;;20.88;;
11962;SDS011;62678;52.130;5.584;2022-11-11T00:59:00;33.75;;;21.85;;
11962;SDS011;62678;52.130;5.584;2022-11-11T01:01:27;35.88;;;22.17;;
11962;SDS011;62678;52.130;5.584;2022-11-11T01:03:56;35.30;;;22.90;;
11962;SDS011;62678;52.130;5.584;2022-11-11T01:06:23;34.65;;;22.20;;
11962;SDS011;62678;52.130;5.584;2022-11-11T01:08:50;35.00;;;23.02;;
11962;SDS011;62678;52.130;5.584;2022-11-11T01:11:20;35.90;;;23.27;;
11962;SDS011;62678;52.130;5.584;2022-11-11T01:13:48;35.80;;;23.73;;
11962;SDS011;62678;52.130;5.584;2022-11-11T01:16:16;32.67;;;23.58;;
11962;SDS011;62678;52.130;5.584;2022-11-11T01:18:44;38.47;;;25.20;;
11962;SDS011;62678;52.130;5.584;2022-11-11T01:21:13;34.10;;;24.25;;
11962;SDS011;62678;52.130;5.584;2022-11-11T01:23:41;38.85;;;25.88;;
11962;SDS011;62678;52.130;5.584;2022-11-11T01:26:10;38.85;;;25.52;;
11962;SDS011;62678;52.130;5.584;2022-11-11T01:28:39;38.33;;;25.58;;
11962;SDS011;62678;52.130;5.584;2022-11-11T01:31:07;38.22;;;24.95;;
11962;SDS011;62678;52.130;5.584;2022-11-11T01:33:35;40.53;;;26.90;;
11962;SDS011;62678;52.130;5.584;2022-11-11T01:36:03;38.22;;;26.45;;
11962;SDS011;62678;52.130;5.584;2022-11-11T01:38:33;35.40;;;25.58;;
11962;SDS011;62678;52.130;5.584;2022-11-11T01:41:00;40.30;;;26.20;;
11962;SDS011;62678;52.130;5.584;2022-11-11T01:43:49;39.22;;;26.65;;
11962;SDS011;62678;52.130;5.584;2022-11-11T01:46:17;40.20;;;27.55;;
11962;SDS011;62678;52.130;5.584;2022-11-11T01:48:52;38.50;;;26.55;;
11962;SDS011;62678;52.130;5.584;2022-11-11T01:51:39;40.45;;;27.23;;
11962;SDS011;62678;52.130;5.584;2022-11-11T01:54:13;36.47;;;27.10;;
11962;SDS011;62678;52.130;5.584;2022-11-11T01:56:44;40.42;;;27.63;;
11962;SDS011;62678;52.130;5.584;2022-11-11T01:59:14;42.35;;;27.58;;
11962;SDS011;62678;52.130;5.584;2022-11-11T02:01:43;44.85;;;28.33;;
11962;SDS011;62678;52.130;5.584;2022-11-11T02:04:10;44.20;;;28.73;;
11962;SDS011;62678;52.130;5.584;2022-11-11T02:06:55;48.38;;;29.30;;
11962;SDS011;62678;52.130;5.584;2022-11-11T02:09:26;39.75;;;29.38;;
11962;SDS011;62678;52.130;5.584;2022-11-11T02:11:54;44.78;;;29.25;;
11962;SDS011;62678;52.130;5.584;2022-11-11T02:14:41;41.95;;;28.48;;
11962;SDS011;62678;52.130;5.584;2022-11-11T02:17:10;43.53;;;28.95;;
11962;SDS011;62678;52.130;5.584;2022-11-11T02:19:48;45.10;;;29.85;;
11962;SDS011;62678;52.130;5.584;2022-11-11T02:22:20;43.92;;;28.45;;
11962;SDS011;62678;52.130;5.584;2022-11-11T02:24:51;45.35;;;30.33;;
11962;SDS011;62678;52.130;5.584;2022-11-11T02:27:19;46.20;;;30.45;;
11962;SDS011;62678;52.130;5.584;2022-11-11T02:29:49;44.58;;;30.02;;
11962;SDS011;62678;52.130;5.584;2022-11-11T02:32:17;45.25;;;30.75;;
11962;SDS011;62678;52.130;5.584;2022-11-11T02:34:44;46.83;;;29.75;;
11962;SDS011;62678;52.130;5.584;2022-11-11T02:37:11;39.65;;;29.00;;
11962;SDS011;62678;52.130;5.584;2022-11-11T02:39:47;44.65;;;30.40;;
11962;SDS011;62678;52.130;5.584;2022-11-11T02:42:17;46.63;;;29.70;;
11962;SDS011;62678;52.130;5.584;2022-11-11T02:44:46;44.42;;;29.85;;
11962;SDS011;62678;52.130;5.584;2022-11-11T02:47:13;44.85;;;29.63;;
11962;SDS011;62678;52.130;5.584;2022-11-11T02:49:39;43.38;;;30.33;;
11962;SDS011;62678;52.130;5.584;2022-11-11T02:52:06;46.50;;;29.33;;
11962;SDS011;62678;52.130;5.584;2022-11-11T02:54:33;43.15;;;29.58;;
11962;SDS011;62678;52.130;5.584;2022-11-11T02:57:00;43.65;;;29.63;;
11962;SDS011;62678;52.130;5.584;2022-11-11T02:59:34;44.70;;;29.13;;
11962;SDS011;62678;52.130;5.584;2022-11-11T03:02:02;47.13;;;30.35;;
11962;SDS011;62678;52.130;5.584;2022-11-11T03:04:29;43.78;;;28.90;;
11962;SDS011;62678;52.130;5.584;2022-11-11T03:06:56;39.10;;;27.15;;
11962;SDS011;62678;52.130;5.584;2022-11-11T03:09:23;42.60;;;27.95;;
11962;SDS011;62678;52.130;5.584;2022-11-11T03:11:50;43.40;;;27.77;;
11962;SDS011;62678;52.130;5.584;2022-11-11T03:14:16;43.42;;;28.75;;
11962;SDS011;62678;52.130;5.584;2022-11-11T03:16:44;41.65;;;27.90;;
11962;SDS011;62678;52.130;5.584;2022-11-11T03:19:29;42.78;;;27.60;;
11962;SDS011;62678;52.130;5.584;2022-11-11T03:21:56;44.55;;;28.73;;
11962;SDS011;62678;52.130;5.584;2022-11-11T03:24:23;48.90;;;27.08;;
11962;SDS011;62678;52.130;5.584;2022-11-11T03:27:10;40.53;;;26.33;;
11962;SDS011;62678;52.130;5.584;2022-11-11T03:29:36;43.35;;;28.08;;
11962;SDS011;62678;52.130;5.584;2022-11-11T03:32:05;41.03;;;26.65;;
11962;SDS011;62678;52.130;5.584;2022-11-11T03:34:32;41.75;;;26.02;;
11962;SDS011;62678;52.130;5.584;2022-11-11T03:36:59;43.05;;;26.00;;
11962;SDS011;62678;52.130;5.584;2022-11-11T03:39:43;42.60;;;26.73;;
11962;SDS011;62678;52.130;5.584;2022-11-11T03:42:09;43.03;;;26.40;;
11962;SDS011;62678;52.130;5.584;2022-11-11T03:44:36;40.05;;;25.27;;
11962;SDS011;62678;52.130;5.584;2022-11-11T03:47:03;38.20;;;24.63;;
11962;SDS011;62678;52.130;5.584;2022-11-11T03:49:31;39.45;;;24.77;;
11962;SDS011;62678;52.130;5.584;2022-11-11T03:51:58;41.53;;;25.40;;
11962;SDS011;62678;52.130;5.584;2022-11-11T03:54:25;37.10;;;23.90;;
11962;SDS011;62678;52.130;5.584;2022-11-11T03:56:52;40.88;;;24.70;;
11962;SDS011;62678;52.130;5.584;2022-11-11T03:59:39;36.88;;;24.48;;
11962;SDS011;62678;52.130;5.584;2022-11-11T04:02:06;40.72;;;24.75;;
11962;SDS011;62678;52.130;5.584;2022-11-11T04:04:55;37.35;;;25.17;;
11962;SDS011;62678;52.130;5.584;2022-11-11T04:07:39;37.63;;;24.10;;
11962;SDS011;62678;52.130;5.584;2022-11-11T04:10:23;38.30;;;25.40;;
11962;SDS011;62678;52.130;5.584;2022-11-11T04:12:50;37.35;;;24.13;;
11962;SDS011;62678;52.130;5.584;2022-11-11T04:15:36;39.90;;;25.02;;
11962;SDS011;62678;52.130;5.584;2022-11-11T04:18:20;39.67;;;24.63;;
11962;SDS011;62678;52.130;5.584;2022-11-11T04:21:09;37.28;;;23.80;;
11962;SDS011;62678;52.130;5.584;2022-11-11T04:23:55;37.60;;;25.27;;
11962;SDS011;62678;52.130;5.584;2022-11-11T04:26:22;34.60;;;25.08;;
11962;SDS011;62678;52.130;5.584;2022-11-11T04:28:47;43.05;;;25.40;;
11962;SDS011;62678;52.130;5.584;2022-11-11T04:31:32;35.55;;;24.40;;
11962;SDS011;62678;52.130;5.584;2022-11-11T04:33:59;33.53;;;24.10;;
11962;SDS011;62678;52.130;5.584;2022-11-11T04:36:26;37.83;;;25.15;;
11962;SDS011;62678;52.130;5.584;2022-11-11T04:38:53;36.20;;;24.08;;
11962;SDS011;62678;52.130;5.584;2022-11-11T04:41:37;33.92;;;23.58;;
11962;SDS011;62678;52.130;5.584;2022-11-11T04:44:04;38.13;;;24.80;;
11962;SDS011;62678;52.130;5.584;2022-11-11T04:46:48;32.65;;;24.05;;
11962;SDS011;62678;52.130;5.584;2022-11-11T04:49:15;37.15;;;24.77;;
11962;SDS011;62678;52.130;5.584;2022-11-11T04:51:43;38.70;;;24.33;;
11962;SDS011;62678;52.130;5.584;2022-11-11T04:54:39;37.67;;;24.70;;
11962;SDS011;62678;52.130;5.584;2022-11-11T04:57:19;40.53;;;24.27;;
11962;SDS011;62678;52.130;5.584;2022-11-11T04:59:46;36.60;;;23.95;;
11962;SDS011;62678;52.130;5.584;2022-11-11T05:02:13;35.10;;;24.05;;
11962;SDS011;62678;52.130;5.584;2022-11-11T05:05:06;40.00;;;24.80;;
11962;SDS011;62678;52.130;5.584;2022-11-11T05:07:34;37.30;;;23.95;;
11962;SDS011;62678;52.130;5.584;2022-11-11T05:10:18;33.97;;;23.20;;
11962;SDS011;62678;52.130;5.584;2022-11-11T05:12:45;36.05;;;24.00;;
11962;SDS011;62678;52.130;5.584;2022-11-11T05:15:12;34.22;;;22.40;;
11962;SDS011;62678;52.130;5.584;2022-11-11T05:17:56;33.28;;;23.10;;
11962;SDS011;62678;52.130;5.584;2022-11-11T05:20:40;33.92;;;23.55;;
11962;SDS011;62678;52.130;5.584;2022-11-11T05:23:28;33.65;;;22.55;;
11962;SDS011;62678;52.130;5.584;2022-11-11T05:26:08;36.20;;;22.58;;
11962;SDS011;62678;52.130;5.584;2022-11-11T05:28:35;34.53;;;22.38;;
11962;SDS011;62678;52.130;5.584;2022-11-11T05:31:02;36.30;;;22.98;;
11962;SDS011;62678;52.130;5.584;2022-11-11T05:33:29;32.28;;;22.30;;
11962;SDS011;62678;52.130;5.584;2022-11-11T05:35:55;37.05;;;22.77;;
11962;SDS011;62678;52.130;5.584;2022-11-11T05:38:22;33.45;;;22.02;;
11962;SDS011;62678;52.130;5.584;2022-11-11T05:40:50;35.33;;;23.30;;
11962;SDS011;62678;52.130;5.584;2022-11-11T05:43:18;33.47;;;21.90;;
11962;SDS011;62678;52.130;5.584;2022-11-11T05:45:45;34.50;;;21.98;;
11962;SDS011;62678;52.130;5.584;2022-11-11T05:48:11;35.22;;;21.92;;
11962;SDS011;62678;52.130;5.584;2022-11-11T05:50:38;36.90;;;22.25;;
11962;SDS011;62678;52.130;5.584;2022-11-11T05:53:06;35.20;;;21.98;;
11962;SDS011;62678;52.130;5.584;2022-11-11T05:55:33;35.42;;;21.67;;
11962;SDS011;62678;52.130;5.584;2022-11-11T05:58:01;39.90;;;23.42;;
11962;SDS011;62678;52.130;5.584;2022-11-11T06:00:28;38.13;;;22.95;;
11962;SDS011;62678;52.130;5.584;2022-11-11T06:03:00;34.80;;;22.50;;
11962;SDS011;62678;52.130;5.584;2022-11-11T06:05:27;34.42;;;22.25;;
11962;SDS011;62678;52.130;5.584;2022-11-11T06:07:54;32.70;;;21.70;;
11962;SDS011;62678;52.130;5.584;2022-11-11T06:10:21;39.58;;;22.83;;
11962;SDS011;62678;52.130;5.584;2022-11-11T06:12:57;38.80;;;22.73;;
11962;SDS011;62678;52.130;5.584;2022-11-11T06:15:31;36.83;;;22.80;;
11962;SDS011;62678;52.130;5.584;2022-11-11T06:17:58;34.35;;;22.48;;
11962;SDS011;62678;52.130;5.584;2022-11-11T06:20:25;36.05;;;22.48;;
11962;SDS011;62678;52.130;5.584;2022-11-11T06:22:53;39.70;;;23.40;;
11962;SDS011;62678;52.130;5.584;2022-11-11T06:25:23;37.78;;;22.55;;
11962;SDS011;62678;52.130;5.584;2022-11-11T06:28:08;35.03;;;21.45;;
11962;SDS011;62678;52.130;5.584;2022-11-11T06:30:37;40.13;;;22.50;;
11962;SDS011;62678;52.130;5.584;2022-11-11T06:33:04;40.33;;;22.83;;
11962;SDS011;62678;52.130;5.584;2022-11-11T06:35:32;32.50;;;21.60;;
11962;SDS011;62678;52.130;5.584;2022-11-11T06:37:59;29.38;;;20.67;;
11962;SDS011;62678;52.130;5.584;2022-11-11T06:40:26;32.17;;;20.25;;
11962;SDS011;62678;52.130;5.584;2022-11-11T06:42:54;30.23;;;20.50;;
11962;SDS011;62678;52.130;5.584;2022-11-11T06:45:21;30.08;;;20.88;;
11962;SDS011;62678;52.130;5.584;2022-11-11T06:47:50;31.10;;;20.02;;
11962;SDS011;62678;52.130;5.584;2022-11-11T06:50:17;29.83;;;19.42;;
11962;SDS011;62678;52.130;5.584;2022-11-11T06:52:44;36.30;;;21.52;;
11962;SDS011;62678;52.130;5.584;2022-11-11T06:55:11;32.47;;;20.33;;
11962;SDS011;62678;52.130;5.584;2022-11-11T06:57:38;29.95;;;20.30;;
11962;SDS011;62678;52.130;5.584;2022-11-11T07:00:06;35.55;;;20.30;;
11962;SDS011;62678;52.130;5.584;2022-11-11T07:02:33;30.65;;;20.33;;
11962;SDS011;62678;52.130;5.584;2022-11-11T07:05:01;36.17;;;20.63;;
11962;SDS011;62678;52.130;5.584;2022-11-11T07:07:28;30.45;;;19.30;;
11962;SDS011;62678;52.130;5.584;2022-11-11T07:09:55;31.73;;;20.13;;
11962;SDS011;62678;52.130;5.584;2022-11-11T07:12:22;31.70;;;22.33;;
11962;SDS011;62678;52.130;5.584;2022-11-11T07:14:49;32.30;;;21.08;;
11962;SDS011;62678;52.130;5.584;2022-11-11T07:17:16;30.30;;;20.67;;
11962;SDS011;62678;52.130;5.584;2022-11-11T07:19:43;31.60;;;20.48;;
11962;SDS011;62678;52.130;5.584;2022-11-11T07:22:11;34.35;;;20.08;;
11962;SDS011;62678;52.130;5.584;2022-11-11T07:24:38;31.05;;;20.30;;
11962;SDS011;62678;52.130;5.584;2022-11-11T07:27:04;34.78;;;20.98;;
11962;SDS011;62678;52.130;5.584;2022-11-11T07:29:31;33.50;;;20.58;;
11962;SDS011;62678;52.130;5.584;2022-11-11T07:31:58;36.72;;;21.30;;
11962;SDS011;62678;52.130;5.584;2022-11-11T07:34:25;32.90;;;20.45;;
11962;SDS011;62678;52.130;5.584;2022-11-11T07:36:58;32.25;;;20.73;;
11962;SDS011;62678;52.130;5.584;2022-11-11T07:39:26;34.63;;;20.63;;
11962;SDS011;62678;52.130;5.584;2022-11-11T07:41:53;38.38;;;20.55;;
11962;SDS011;62678;52.130;5.584;2022-11-11T07:44:20;33.25;;;20.58;;
11962;SDS011;62678;52.130;5.584;2022-11-11T07:46:46;36.70;;;21.40;;
11962;SDS011;62678;52.130;5.584;2022-11-11T07:49:13;31.45;;;20.77;;
11962;SDS011;62678;52.130;5.584;2022-11-11T07:51:40;35.60;;;21.17;;
11962;SDS011;62678;52.130;5.584;2022-11-11T07:54:07;31.23;;;20.27;;
11962;SDS011;62678;52.130;5.584;2022-11-11T07:56:35;37.33;;;20.85;;
11962;SDS011;62678;52.130;5.584;2022-11-11T07:59:01;35.70;;;21.33;;
11962;SDS011;62678;52.130;5.584;2022-11-11T08:01:28;30.20;;;19.50;;
11962;SDS011;62678;52.130;5.584;2022-11-11T08:03:55;34.28;;;20.58;;
11962;SDS011;62678;52.130;5.584;2022-11-11T08:06:22;31.50;;;20.05;;
11962;SDS011;62678;52.130;5.584;2022-11-11T08:08:49;33.17;;;20.85;;
11962;SDS011;62678;52.130;5.584;2022-11-11T08:11:16;36.13;;;21.25;;
11962;SDS011;62678;52.130;5.584;2022-11-11T08:14:04;34.25;;;19.63;;
11962;SDS011;62678;52.130;5.584;2022-11-11T08:16:30;32.00;;;19.35;;
11962;SDS011;62678;52.130;5.584;2022-11-11T08:18:57;33.72;;;20.55;;
11962;SDS011;62678;52.130;5.584;2022-11-11T08:21:24;31.80;;;20.35;;
11962;SDS011;62678;52.130;5.584;2022-11-11T08:23:51;31.65;;;19.40;;
11962;SDS011;62678;52.130;5.584;2022-11-11T08:26:19;31.90;;;19.42;;
11962;SDS011;62678;52.130;5.584;2022-11-11T08:28:47;28.88;;;19.67;;
11962;SDS011;62678;52.130;5.584;2022-11-11T08:31:17;30.92;;;19.67;;
11962;SDS011;62678;52.130;5.584;2022-11-11T08:33:44;32.05;;;19.95;;
11962;SDS011;62678;52.130;5.584;2022-11-11T08:36:11;27.75;;;18.83;;
11962;SDS011;62678;52.130;5.584;2022-11-11T08:38:38;29.55;;;19.02;;
11962;SDS011;62678;52.130;5.584;2022-11-11T08:41:05;34.83;;;18.90;;
11962;SDS011;62678;52.130;5.584;2022-11-11T08:43:32;29.45;;;18.60;;
11962;SDS011;62678;52.130;5.584;2022-11-11T08:46:00;28.15;;;18.73;;
11962;SDS011;62678;52.130;5.584;2022-11-11T08:48:30;30.52;;;19.30;;
11962;SDS011;62678;52.130;5.584;2022-11-11T08:50:56;30.05;;;18.02;;
11962;SDS011;62678;52.130;5.584;2022-11-11T08:53:23;28.55;;;17.58;;
11962;SDS011;62678;52.130;5.584;2022-11-11T08:55:52;28.85;;;17.77;;
11962;SDS011;62678;52.130;5.584;2022-11-11T08:58:19;26.17;;;18.00;;
11962;SDS011;62678;52.130;5.584;2022-11-11T09:00:46;25.83;;;17.30;;
11962;SDS011;62678;52.130;5.584;2022-11-11T09:03:13;24.58;;;17.73;;
11962;SDS011;62678;52.130;5.584;2022-11-11T09:05:41;25.73;;;17.88;;
11962;SDS011;62678;52.130;5.584;2022-11-11T09:08:08;27.42;;;19.30;;
11962;SDS011;62678;52.130;5.584;2022-11-11T09:10:35;27.08;;;17.92;;
11962;SDS011;62678;52.130;5.584;2022-11-11T09:13:03;27.98;;;19.35;;
11962;SDS011;62678;52.130;5.584;2022-11-11T09:15:30;31.30;;;18.63;;
11962;SDS011;62678;52.130;5.584;2022-11-11T09:17:57;27.40;;;18.77;;
11962;SDS011;62678;52.130;5.584;2022-11-11T09:20:24;24.98;;;17.67;;
11962;SDS011;62678;52.130;5.584;2022-11-11T09:22:52;30.75;;;18.52;;
11962;SDS011;62678;52.130;5.584;2022-11-11T09:25:19;25.50;;;17.88;;
11962;SDS011;62678;52.130;5.584;2022-11-11T09:27:52;26.38;;;16.60;;
11962;SDS011;62678;52.130;5.584;2022-11-11T09:30:20;24.98;;;17.52;;
11962;SDS011;62678;52.130;5.584;2022-11-11T09:32:47;23.95;;;17.02;;
11962;SDS011;62678;52.130;5.584;2022-11-11T09:35:14;25.55;;;17.00;;
11962;SDS011;62678;52.130;5.584;2022-11-11T09:37:41;23.35;;;16.20;;
11962;SDS011;62678;52.130;5.584;2022-11-11T09:40:10;24.58;;;17.02;;
11962;SDS011;62678;52.130;5.584;2022-11-11T09:42:47;21.25;;;16.52;;
11962;SDS011;62678;52.130;5.584;2022-11-11T09:45:19;26.00;;;17.08;;
11962;SDS011;62678;52.130;5.584;2022-11-11T09:47:54;28.73;;;16.58;;
11962;SDS011;62678;52.130;5.584;2022-11-11T09:50:27;23.75;;;16.08;;
11962;SDS011;62678;52.130;5.584;2022-11-11T09:52:58;23.13;;;16.70;;
11962;SDS011;62678;52.130;5.584;2022-11-11T09:55:32;22.60;;;16.48;;
11962;SDS011;62678;52.130;5.584;2022-11-11T09:58:04;21.67;;;15.63;;
11962;SDS011;62678;52.130;5.584;2022-11-11T10:00:36;20.85;;;14.98;;
11962;SDS011;62678;52.130;5.584;2022-11-11T10:03:07;21.23;;;15.82;;
11962;SDS011;62678;52.130;5.584;2022-11-11T10:05:43;19.80;;;15.23;;
11962;SDS011;62678;52.130;5.584;2022-11-11T10:08:15;21.60;;;15.63;;
11962;SDS011;62678;52.130;5.584;2022-11-11T10:10:48;22.58;;;14.73;;
11962;SDS011;62678;52.130;5.584;2022-11-11T10:13:22;19.38;;;14.55;;
11962;SDS011;62678;52.130;5.584;2022-11-11T10:15:57;19.63;;;15.23;;
11962;SDS011;62678;52.130;5.584;2022-11-11T10:18:37;19.65;;;15.73;;
11962;SDS011;62678;52.130;5.584;2022-11-11T10:21:18;19.65;;;14.73;;
11962;SDS011;62678;52.130;5.584;2022-11-11T10:23:49;23.25;;;14.80;;
11962;SDS011;62678;52.130;5.584;2022-11-11T10:26:23;19.42;;;15.02;;
11962;SDS011;62678;52.130;5.584;2022-11-11T10:28:57;21.17;;;15.05;;
11962;SDS011;62678;52.130;5.584;2022-11-11T10:31:26;21.50;;;14.75;;
11962;SDS011;62678;52.130;5.584;2022-11-11T10:33:54;20.98;;;14.38;;
11962;SDS011;62678;52.130;5.584;2022-11-11T10:36:25;20.17;;;14.70;;
11962;SDS011;62678;52.130;5.584;2022-11-11T10:38:55;18.83;;;14.43;;
11962;SDS011;62678;52.130;5.584;2022-11-11T10:41:29;22.13;;;15.10;;
11962;SDS011;62678;52.130;5.584;2022-11-11T10:43:59;18.95;;;13.98;;
11962;SDS011;62678;52.130;5.584;2022-11-11T10:46:27;20.52;;;14.30;;
11962;SDS011;62678;52.130;5.584;2022-11-11T10:49:01;19.35;;;14.63;;
11962;SDS011;62678;52.130;5.584;2022-11-11T10:51:32;22.02;;;14.82;;
11962;SDS011;62678;52.130;5.584;2022-11-11T10:54:03;16.92;;;13.75;;
11962;SDS011;62678;52.130;5.584;2022-11-11T10:56:36;17.77;;;13.50;;
11962;SDS011;62678;52.130;5.584;2022-11-11T10:59:13;17.05;;;14.90;;
11962;SDS011;62678;52.130;5.584;2022-11-11T11:01:47;22.50;;;14.20;;
11962;SDS011;62678;52.130;5.584;2022-11-11T11:04:19;19.10;;;14.10;;
11962;SDS011;62678;52.130;5.584;2022-11-11T11:06:51;19.83;;;13.75;;
11962;SDS011;62678;52.130;5.584;2022-11-11T11:09:21;17.10;;;12.98;;
11962;SDS011;62678;52.130;5.584;2022-11-11T11:11:54;15.90;;;13.00;;
11962;SDS011;62678;52.130;5.584;2022-11-11T11:14:27;17.33;;;12.75;;
11962;SDS011;62678;52.130;5.584;2022-11-11T11:16:57;18.10;;;12.85;;
11962;SDS011;62678;52.130;5.584;2022-11-11T11:19:27;20.08;;;13.15;;
11962;SDS011;62678;52.130;5.584;2022-11-11T11:21:55;17.85;;;14.10;;
11962;SDS011;62678;52.130;5.584;2022-11-11T11:24:24;17.63;;;13.27;;
11962;SDS011;62678;52.130;5.584;2022-11-11T11:26:54;18.17;;;12.88;;
11962;SDS011;62678;52.130;5.584;2022-11-11T11:29:25;16.75;;;12.85;;
11962;SDS011;62678;52.130;5.584;2022-11-11T11:31:54;21.88;;;13.13;;
11962;SDS011;62678;52.130;5.584;2022-11-11T11:34:22;16.85;;;12.80;;
11962;SDS011;62678;52.130;5.584;2022-11-11T11:37:09;16.77;;;13.43;;
11962;SDS011;62678;52.130;5.584;2022-11-11T11:39:37;17.30;;;12.82;;
11962;SDS011;62678;52.130;5.584;2022-11-11T11:42:06;16.60;;;12.77;;
11962;SDS011;62678;52.130;5.584;2022-11-11T11:44:35;17.85;;;13.32;;
11962;SDS011;62678;52.130;5.584;2022-11-11T11:47:11;17.50;;;13.13;;
11962;SDS011;62678;52.130;5.584;2022-11-11T11:49:50;17.58;;;13.50;;
11962;SDS011;62678;52.130;5.584;2022-11-11T11:52:32;17.17;;;13.88;;
11962;SDS011;62678;52.130;5.584;2022-11-11T11:55:10;18.73;;;13.60;;
11962;SDS011;62678;52.130;5.584;2022-11-11T11:57:45;19.33;;;13.38;;
11962;SDS011;62678;52.130;5.584;2022-11-11T12:00:21;22.13;;;13.73;;
11962;SDS011;62678;52.130;5.584;2022-11-11T12:05:43;19.33;;;13.50;;
11962;SDS011;62678;52.130;5.584;2022-11-11T12:08:18;16.55;;;13.80;;
11962;SDS011;62678;52.130;5.584;2022-11-11T12:10:58;16.90;;;14.18;;
11962;SDS011;62678;52.130;5.584;2022-11-11T12:13:35;17.55;;;12.95;;
11962;SDS011;62678;52.130;5.584;2022-11-11T12:16:15;17.67;;;13.70;;
11962;SDS011;62678;52.130;5.584;2022-11-11T12:19:00;20.27;;;13.27;;
11962;SDS011;62678;52.130;5.584;2022-11-11T12:21:43;20.50;;;13.40;;
11962;SDS011;62678;52.130;5.584;2022-11-11T12:24:24;20.17;;;13.48;;
11962;SDS011;62678;52.130;5.584;2022-11-11T12:27:12;17.38;;;12.93;;
11962;SDS011;62678;52.130;5.584;2022-11-11T12:29:51;19.75;;;13.98;;
11962;SDS011;62678;52.130;5.584;2022-11-11T12:32:33;18.95;;;13.55;;
11962;SDS011;62678;52.130;5.584;2022-11-11T12:35:15;18.45;;;14.07;;
11962;SDS011;62678;52.130;5.584;2022-11-11T12:37:56;18.10;;;13.50;;
11962;SDS011;62678;52.130;5.584;2022-11-11T12:40:35;18.83;;;13.88;;
11962;SDS011;62678;52.130;5.584;2022-11-11T12:43:13;19.25;;;13.95;;
11962;SDS011;62678;52.130;5.584;2022-11-11T12:45:48;21.38;;;13.52;;
11962;SDS011;62678;52.130;5.584;2022-11-11T12:48:27;19.75;;;13.02;;
11962;SDS011;62678;52.130;5.584;2022-11-11T12:51:07;17.40;;;13.15;;
11962;SDS011;62678;52.130;5.584;2022-11-11T12:53:43;20.23;;;12.38;;
11962;SDS011;62678;52.130;5.584;2022-11-11T12:56:22;14.82;;;12.27;;
11962;SDS011;62678;52.130;5.584;2022-11-11T12:58:56;16.67;;;12.63;;
11962;SDS011;62678;52.130;5.584;2022-11-11T13:01:33;15.80;;;12.48;;
11962;SDS011;62678;52.130;5.584;2022-11-11T13:04:32;18.00;;;12.07;;
11962;SDS011;62678;52.130;5.584;2022-11-11T13:07:15;18.50;;;12.60;;
11962;SDS011;62678;52.130;5.584;2022-11-11T13:10:02;15.13;;;12.10;;
11962;SDS011;62678;52.130;5.584;2022-11-11T13:12:42;16.13;;;12.40;;
11962;SDS011;62678;52.130;5.584;2022-11-11T13:15:14;19.15;;;12.15;;
11962;SDS011;62678;52.130;5.584;2022-11-11T13:17:48;17.67;;;11.98;;
11962;SDS011;62678;52.130;5.584;2022-11-11T13:20:17;20.20;;;12.70;;
11962;SDS011;62678;52.130;5.584;2022-11-11T13:22:55;16.58;;;12.35;;
11962;SDS011;62678;52.130;5.584;2022-11-11T13:25:23;19.67;;;12.35;;
11962;SDS011;62678;52.130;5.584;2022-11-11T13:27:55;16.42;;;12.15;;
11962;SDS011;62678;52.130;5.584;2022-11-11T13:30:32;17.17;;;12.00;;
11962;SDS011;62678;52.130;5.584;2022-11-11T13:33:09;17.90;;;11.38;;
11962;SDS011;62678;52.130;5.584;2022-11-11T13:35:41;18.13;;;11.77;;
11962;SDS011;62678;52.130;5.584;2022-11-11T13:38:10;18.38;;;11.45;;
11962;SDS011;62678;52.130;5.584;2022-11-11T13:40:50;17.67;;;11.18;;
11962;SDS011;62678;52.130;5.584;2022-11-11T13:43:19;20.05;;;11.48;;
11962;SDS011;62678;52.130;5.584;2022-11-11T13:45:49;15.27;;;11.43;;
11962;SDS011;62678;52.130;5.584;2022-11-11T13:48:21;15.82;;;11.15;;
11962;SDS011;62678;52.130;5.584;2022-11-11T13:50:52;17.83;;;10.65;;
11962;SDS011;62678;52.130;5.584;2022-11-11T13:53:35;18.92;;;11.25;;
11962;SDS011;62678;52.130;5.584;2022-11-11T13:56:04;13.50;;;9.88;;
11962;SDS011;62678;52.130;5.584;2022-11-11T13:58:32;15.10;;;10.52;;
11962;SDS011;62678;52.130;5.584;2022-11-11T14:01:02;14.95;;;10.38;;
11962;SDS011;62678;52.130;5.584;2022-11-11T14:03:34;16.60;;;11.38;;
11962;SDS011;62678;52.130;5.584;2022-11-11T14:06:28;14.80;;;11.55;;
11962;SDS011;62678;52.130;5.584;2022-11-11T14:12:18;17.17;;;11.73;;
11962;SDS011;62678;52.130;5.584;2022-11-11T14:14:54;19.73;;;12.43;;
11962;SDS011;62678;52.130;5.584;2022-11-11T14:17:21;17.45;;;11.45;;
11962;SDS011;62678;52.130;5.584;2022-11-11T14:19:49;19.33;;;11.43;;
11962;SDS011;62678;52.130;5.584;2022-11-11T14:22:26;19.08;;;12.90;;
11962;SDS011;62678;52.130;5.584;2022-11-11T14:27:52;22.30;;;12.38;;
11962;SDS011;62678;52.130;5.584;2022-11-11T14:30:30;16.20;;;12.30;;
11962;SDS011;62678;52.130;5.584;2022-11-11T14:33:02;18.52;;;12.75;;
11962;SDS011;62678;52.130;5.584;2022-11-11T14:35:37;18.63;;;12.48;;
11962;SDS011;62678;52.130;5.584;2022-11-11T14:38:19;17.58;;;11.50;;
11962;SDS011;62678;52.130;5.584;2022-11-11T14:40:53;19.13;;;11.50;;
11962;SDS011;62678;52.130;5.584;2022-11-11T14:43:32;17.45;;;11.90;;
11962;SDS011;62678;52.130;5.584;2022-11-11T14:46:02;15.82;;;11.20;;
11962;SDS011;62678;52.130;5.584;2022-11-11T14:48:53;14.65;;;11.07;;
11962;SDS011;62678;52.130;5.584;2022-11-11T14:54:28;14.27;;;10.07;;
11962;SDS011;62678;52.130;5.584;2022-11-11T14:57:20;13.68;;;9.90;;
11962;SDS011;62678;52.130;5.584;2022-11-11T14:59:49;16.30;;;10.50;;